createdAt,value
2019-03-06T00:00:17.590Z,99591.86
2019-03-06T00:02:48.905Z,99591.86
2019-03-06T00:05:20.144Z,99595.47
2019-03-06T00:07:51.453Z,99583.68
2019-03-06T00:10:29.332Z,99585.84
2019-03-06T00:13:00.709Z,99579.91
2019-03-06T00:15:32.007Z,99579.83
2019-03-06T00:18:03.457Z,99583.68
2019-03-06T00:20:34.761Z,99574.78
2019-03-06T00:23:06.045Z,99578.71
2019-03-06T00:25:37.325Z,99570.73
2019-03-06T00:28:08.785Z,99561.98
2019-03-06T00:30:40.102Z,99559.08
2019-03-06T00:33:11.393Z,99552.83
2019-03-06T00:35:45.609Z,99558.06
2019-03-06T00:38:16.909Z,99547.70
2019-03-06T00:40:53.244Z,99547.10
2019-03-06T00:43:24.539Z,99550.84
2019-03-06T00:45:55.810Z,99549.94
2019-03-06T00:48:27.127Z,99553.72
2019-03-06T00:50:58.452Z,99546.94
2019-03-06T00:53:29.768Z,99548.77
2019-03-06T00:56:01.054Z,99550.38
2019-03-06T00:58:32.306Z,99547.91
2019-03-06T01:01:03.596Z,99551.50
2019-03-06T01:03:34.898Z,99563.64
2019-03-06T01:06:06.294Z,99539.20
2019-03-06T01:08:37.581Z,99541.17
2019-03-06T01:11:08.926Z,99539.08
2019-03-06T01:13:40.382Z,99534.48
2019-03-06T01:16:11.660Z,99534.41
2019-03-06T01:18:42.950Z,99531.88
2019-03-06T01:21:14.515Z,99533.30
2019-03-06T01:23:45.804Z,99530.03
2019-03-06T01:26:17.055Z,99536.86
2019-03-06T01:28:48.397Z,99549.34
2019-03-06T01:31:19.682Z,99523.47
2019-03-06T01:34:03.600Z,99527.55
2019-03-06T01:36:52.462Z,99525.83
2019-03-06T01:39:41.168Z,99507.83
2019-03-06T01:42:21.735Z,99513.91
2019-03-06T01:44:59.138Z,99493.37
2019-03-06T01:47:32.498Z,99489.77
2019-03-06T01:50:03.870Z,99487.62
2019-03-06T01:52:35.200Z,99485.92
2019-03-06T01:55:07.197Z,99482.25
2019-03-06T01:57:38.477Z,99482.48
2019-03-06T02:00:13.257Z,99480.53
2019-03-06T02:02:44.524Z,99476.67
2019-03-06T02:05:16.860Z,99469.39
2019-03-06T02:07:48.198Z,99467.37
2019-03-06T02:10:20.002Z,99464.43
2019-03-06T02:12:51.315Z,99458.82
2019-03-06T02:15:23.055Z,99449.12
2019-03-06T02:17:54.332Z,99459.27
2019-03-06T02:20:25.601Z,99452.65
2019-03-06T02:22:56.892Z,99454.28
2019-03-06T02:25:28.155Z,99454.73
2019-03-06T02:27:59.459Z,99447.13
2019-03-06T02:30:30.743Z,99440.55
2019-03-06T02:33:02.035Z,99443.16
2019-03-06T02:35:33.367Z,99447.47
2019-03-06T02:38:04.624Z,99433.39
2019-03-06T02:40:35.899Z,99435.89
2019-03-06T02:43:07.204Z,99427.63
2019-03-06T02:45:38.494Z,99413.17
2019-03-06T02:48:10.052Z,99407.86
2019-03-06T02:50:41.477Z,99404.70
2019-03-06T02:53:12.730Z,99399.80
2019-03-06T02:55:44.068Z,99405.28
2019-03-06T02:58:22.677Z,99397.75
2019-03-06T03:01:18.853Z,99376.79
2019-03-06T03:04:06.373Z,99374.87
2019-03-06T03:06:41.842Z,99372.44
2019-03-06T03:09:19.210Z,99377.89
2019-03-06T03:11:50.461Z,99370.97
2019-03-06T03:14:21.728Z,99377.92
2019-03-06T03:16:53.026Z,99373.59
2019-03-06T03:19:24.327Z,99369.16
2019-03-06T03:21:55.615Z,99360.81
2019-03-06T03:24:26.917Z,99357.37
2019-03-06T03:26:58.176Z,99351.59
2019-03-06T03:29:29.432Z,99344.10
2019-03-06T03:32:00.734Z,99343.20
2019-03-06T03:34:32.055Z,99345.28
2019-03-06T03:37:03.376Z,99344.87
2019-03-06T03:39:34.611Z,99342.05
2019-03-06T03:42:05.889Z,99336.03
2019-03-06T03:44:37.171Z,99337.20
2019-03-06T03:47:08.453Z,99326.95
2019-03-06T03:49:39.713Z,99330.27
2019-03-06T03:52:11.008Z,99324.89
2019-03-06T03:54:42.355Z,99334.52
2019-03-06T03:57:13.862Z,99333.53
2019-03-06T03:59:45.147Z,99326.12
2019-03-06T04:02:16.455Z,99324.36
2019-03-06T04:04:47.951Z,99323.05
2019-03-06T04:07:19.240Z,99320.20
2019-03-06T04:09:50.528Z,99314.05
2019-03-06T04:12:21.815Z,99313.56
2019-03-06T04:14:53.144Z,99312.98
2019-03-06T04:17:24.430Z,99313.66
2019-03-06T04:19:55.978Z,99307.56
2019-03-06T04:22:27.385Z,99307.64
2019-03-06T04:24:58.689Z,99299.92
2019-03-06T04:27:29.988Z,99306.02
2019-03-06T04:30:01.267Z,99291.23
2019-03-06T04:32:32.585Z,99287.53
2019-03-06T04:35:03.870Z,99284.69
2019-03-06T04:37:35.158Z,99284.06
2019-03-06T04:40:06.876Z,99284.14
2019-03-06T04:42:38.156Z,99291.78
2019-03-06T04:45:09.953Z,99293.95
2019-03-06T04:47:41.221Z,99293.87
2019-03-06T04:50:12.510Z,99288.53
2019-03-06T04:52:44.852Z,99286.23
2019-03-06T04:55:16.519Z,99274.20
2019-03-06T04:57:47.828Z,99268.95
2019-03-06T05:00:19.140Z,99270.58
2019-03-06T05:02:50.426Z,99261.48
2019-03-06T05:05:21.761Z,99271.66
2019-03-06T05:07:53.018Z,99264.34
2019-03-06T05:10:24.377Z,99266.19
2019-03-06T05:12:55.710Z,99256.69
2019-03-06T05:15:27.015Z,99248.67
2019-03-06T05:18:15.589Z,99245.34
2019-03-06T05:20:46.865Z,99249.59
2019-03-06T05:23:18.382Z,99240.94
2019-03-06T05:25:49.664Z,99235.33
2019-03-06T05:28:20.982Z,99228.06
2019-03-06T05:30:52.383Z,99224.13
2019-03-06T05:33:23.693Z,99233.53
2019-03-06T05:36:51.964Z,99219.19
2019-03-06T05:39:23.239Z,99217.42
2019-03-06T05:41:54.533Z,99215.95
2019-03-06T05:44:25.868Z,99215.89
2019-03-06T05:46:57.342Z,99219.83
2019-03-06T05:49:28.626Z,99210.64
2019-03-06T05:51:59.918Z,99212.11
2019-03-06T05:54:31.284Z,99195.91
2019-03-06T05:57:02.819Z,99203.07
2019-03-06T05:59:34.400Z,99205.88
2019-03-06T06:02:05.700Z,99201.76
2019-03-06T06:04:36.982Z,99185.48
2019-03-06T06:07:08.271Z,99178.34
2019-03-06T06:09:39.567Z,99181.41
2019-03-06T06:12:10.808Z,99177.63
2019-03-06T06:14:42.067Z,99173.64
2019-03-06T06:17:13.328Z,99164.06
2019-03-06T06:19:44.613Z,99161.75
2019-03-06T06:22:31.187Z,99165.35
2019-03-06T06:25:02.489Z,99153.22
2019-03-06T06:27:34.019Z,99150.35
2019-03-06T06:30:05.688Z,99143.80
2019-03-06T06:32:37.282Z,99145.81
2019-03-06T06:35:09.837Z,99130.73
2019-03-06T06:37:41.278Z,99135.38
2019-03-06T06:40:12.732Z,99131.75
2019-03-06T06:42:44.038Z,99132.52
2019-03-06T06:45:15.580Z,99131.96
2019-03-06T06:48:25.130Z,99125.46
2019-03-06T06:52:16.372Z,99121.83
2019-03-06T06:55:35.786Z,99118.99
2019-03-06T06:58:59.977Z,99117.52
2019-03-06T07:02:59.519Z,99106.17
2019-03-06T07:05:55.719Z,99095.13
2019-03-06T07:08:50.229Z,99085.98
2019-03-06T07:11:37.226Z,99071.66
2019-03-06T07:14:27.431Z,99060.25
2019-03-06T07:17:09.337Z,99058.58
2019-03-06T07:19:49.756Z,99054.94
2019-03-06T07:22:35.820Z,99042.45
2019-03-06T07:25:25.689Z,99033.81
2019-03-06T07:28:05.225Z,99025.97
2019-03-06T07:31:01.383Z,99021.87
2019-03-06T07:33:40.190Z,99032.95
2019-03-06T07:36:30.503Z,99017.00
2019-03-06T07:39:38.619Z,99002.39
2019-03-06T07:42:40.361Z,99000.80
2019-03-06T07:46:05.734Z,98995.17
2019-03-06T07:49:00.421Z,98996.51
2019-03-06T07:51:50.584Z,98996.80
2019-03-06T07:54:35.210Z,99003.11
2019-03-06T07:57:37.391Z,98996.63
2019-03-06T08:00:20.454Z,98997.20
2019-03-06T08:03:45.054Z,99009.50
2019-03-06T08:06:16.368Z,99012.12
2019-03-06T08:08:47.723Z,99015.33
2019-03-06T08:11:28.678Z,98990.52
2019-03-06T08:14:08.419Z,99000.06
2019-03-06T08:16:51.143Z,98991.89
2019-03-06T08:19:32.628Z,98992.50
2019-03-06T08:22:11.584Z,98988.03
2019-03-06T08:25:00.369Z,99000.41
2019-03-06T08:27:31.626Z,98985.36
2019-03-06T08:30:03.333Z,98964.77
2019-03-06T08:32:35.717Z,98975.48
2019-03-06T08:35:08.825Z,98962.11
2019-03-06T08:37:40.169Z,98950.17
2019-03-06T08:40:11.673Z,98956.87
2019-03-06T08:42:42.925Z,98966.17
2019-03-06T08:45:16.823Z,98945.05
2019-03-06T08:48:05.603Z,98937.49
2019-03-06T08:51:01.882Z,98931.34
2019-03-06T08:53:58.171Z,98946.22
2019-03-06T08:56:57.562Z,98926.44
2019-03-06T08:59:59.777Z,98947.22
2019-03-06T09:02:44.366Z,98929.27
2019-03-06T09:05:32.775Z,98930.77
2019-03-06T09:08:14.871Z,98925.59
2019-03-06T09:11:03.061Z,98926.98
2019-03-06T09:13:46.190Z,98932.73
2019-03-06T09:16:45.517Z,98930.14
2019-03-06T09:19:29.505Z,98937.56
2019-03-06T09:22:16.270Z,98944.22
2019-03-06T09:24:57.621Z,98923.25
2019-03-06T09:27:47.002Z,98907.16
2019-03-06T09:30:43.317Z,98916.19
2019-03-06T09:33:31.957Z,98898.42
2019-03-06T09:36:28.004Z,98906.98
2019-03-06T09:39:06.639Z,98889.59
2019-03-06T09:41:50.657Z,98898.84
2019-03-06T09:44:40.832Z,98876.14
2019-03-06T09:47:31.049Z,98867.87
2019-03-06T09:50:11.849Z,98873.55
2019-03-06T09:53:20.167Z,98860.44
2019-03-06T09:56:19.541Z,98845.30
2019-03-06T09:59:08.409Z,98843.20
2019-03-06T10:02:06.534Z,98828.09
2019-03-06T10:04:54.060Z,98831.96
2019-03-06T10:07:41.598Z,98811.05
2019-03-06T10:10:30.572Z,98813.57
2019-03-06T10:13:09.864Z,98806.72
2019-03-06T10:15:52.291Z,98802.50
2019-03-06T10:18:48.539Z,98816.31
2019-03-06T10:21:19.830Z,98770.25
2019-03-06T10:23:51.088Z,98789.96
2019-03-06T10:26:22.556Z,98790.49
2019-03-06T10:28:53.825Z,98781.46
2019-03-06T10:31:25.105Z,98799.63
2019-03-06T10:33:56.345Z,98785.33
2019-03-06T10:36:27.635Z,98794.84
2019-03-06T10:38:58.935Z,98795.20
2019-03-06T10:41:30.171Z,98796.27
2019-03-06T10:44:01.522Z,98791.47
2019-03-06T10:46:32.744Z,98769.25
2019-03-06T10:49:04.122Z,98767.70
2019-03-06T10:51:35.434Z,98784.73
2019-03-06T10:54:07.230Z,98788.78
2019-03-06T10:56:38.529Z,98788.59
2019-03-06T10:59:09.908Z,98797.44
2019-03-06T11:01:41.207Z,98785.31
2019-03-06T11:04:25.374Z,98800.02
2019-03-06T11:06:56.649Z,98770.89
2019-03-06T11:09:28.397Z,98765.87
2019-03-06T11:11:59.852Z,98775.84
2019-03-06T11:14:31.328Z,98753.33
2019-03-06T11:17:02.557Z,98772.12
2019-03-06T11:19:34.129Z,98761.30
2019-03-06T11:22:06.207Z,98785.32
2019-03-06T11:24:37.457Z,98767.45
2019-03-06T11:27:09.015Z,98771.45
2019-03-06T11:29:40.424Z,98773.73
2019-03-06T11:32:13.052Z,98765.61
2019-03-06T11:34:44.409Z,98755.62
2019-03-06T11:37:15.833Z,98744.55
2019-03-06T11:39:47.119Z,98726.68
2019-03-06T11:42:18.446Z,98744.93
2019-03-06T11:44:49.782Z,98714.36
2019-03-06T11:47:21.330Z,98705.28
2019-03-06T11:49:52.595Z,98704.41
2019-03-06T11:52:23.848Z,98695.38
2019-03-06T11:54:55.089Z,98686.79
2019-03-06T11:57:26.344Z,98687.04
2019-03-06T11:59:57.586Z,98708.30
2019-03-06T12:02:28.830Z,98684.45
2019-03-06T12:05:00.265Z,98667.84
2019-03-06T12:07:31.488Z,98654.94
2019-03-06T12:10:02.813Z,98656.97
2019-03-06T12:12:34.098Z,98625.54
2019-03-06T12:15:05.578Z,98634.02
2019-03-06T12:17:36.914Z,98625.83
2019-03-06T12:20:08.665Z,98631.38
2019-03-06T12:22:40.050Z,98628.03
2019-03-06T12:25:12.069Z,98637.91
2019-03-06T12:27:43.486Z,98631.60
2019-03-06T12:30:15.837Z,98622.31
2019-03-06T12:32:47.239Z,98624.45
2019-03-06T12:35:18.655Z,98627.50
2019-03-06T12:37:50.039Z,98614.86
2019-03-06T12:40:22.518Z,98622.64
2019-03-06T12:42:53.853Z,98626.84
2019-03-06T12:45:27.151Z,98628.44
2019-03-06T12:47:58.296Z,98608.94
2019-03-06T12:50:30.558Z,98605.13
2019-03-06T12:53:01.853Z,98606.91
2019-03-06T12:55:33.259Z,98608.01
2019-03-06T12:58:04.778Z,98579.27
2019-03-06T13:00:36.363Z,98589.39
2019-03-06T13:03:07.756Z,98594.39
2019-03-06T13:05:39.029Z,98592.75
2019-03-06T13:08:19.437Z,98573.27
2019-03-06T13:10:43.248Z,98593.84
2019-03-06T13:13:14.695Z,98552.70
2019-03-06T13:15:47.142Z,98565.39
2019-03-06T13:18:19.183Z,98549.42
2019-03-06T13:20:50.672Z,98550.06
2019-03-06T13:23:22.154Z,98549.38
2019-03-06T13:25:53.740Z,98555.98
2019-03-06T13:28:25.205Z,98548.03
2019-03-06T13:30:56.658Z,98536.77
2019-03-06T13:33:46.918Z,98522.08
2019-03-06T13:36:18.403Z,98502.73
2019-03-06T13:38:54.990Z,98502.23
2019-03-06T13:41:22.710Z,98515.34
2019-03-06T13:43:54.069Z,98510.08
2019-03-06T13:46:25.535Z,98497.22
2019-03-06T13:48:57.203Z,98494.17
2019-03-06T13:51:28.693Z,98484.14
2019-03-06T13:54:00.186Z,98484.03
2019-03-06T13:56:31.441Z,98482.81
2019-03-06T13:59:02.837Z,98483.34
2019-03-06T14:01:34.251Z,98470.59
2019-03-06T14:04:05.530Z,98461.06
2019-03-06T14:06:36.774Z,98461.91
2019-03-06T14:09:11.642Z,98469.77
2019-03-06T14:11:45.797Z,98474.00
2019-03-06T14:14:17.062Z,98471.59
2019-03-06T14:16:48.373Z,98479.25
2019-03-06T14:19:19.739Z,98483.05
2019-03-06T14:21:51.107Z,98470.64
2019-03-06T14:24:22.617Z,98487.13
2019-03-06T14:26:53.917Z,98474.67
2019-03-06T14:29:25.189Z,98476.98
2019-03-06T14:31:56.482Z,98481.48
2019-03-06T14:34:27.817Z,98487.11
2019-03-06T14:36:59.270Z,98492.77
2019-03-06T14:39:32.150Z,98516.24
2019-03-06T14:42:03.461Z,98504.88
2019-03-06T14:44:34.739Z,98507.17
2019-03-06T14:47:06.265Z,98515.15
2019-03-06T14:49:37.831Z,98497.26
2019-03-06T14:52:09.131Z,98504.72
2019-03-06T14:54:40.438Z,98503.67
2019-03-06T14:57:11.710Z,98497.58
2019-03-06T14:59:43.010Z,98502.55
2019-03-06T15:02:14.468Z,98514.94
2019-03-06T15:04:45.800Z,98499.83
2019-03-06T15:07:17.147Z,98499.37
2019-03-06T15:09:48.394Z,98514.63
2019-03-06T15:12:19.811Z,98501.78
2019-03-06T15:14:51.215Z,98490.27
2019-03-06T15:17:22.512Z,98481.05
2019-03-06T15:19:54.070Z,98483.43
2019-03-06T15:22:25.341Z,98482.25
2019-03-06T15:24:56.697Z,98489.80
2019-03-06T15:27:28.168Z,98475.77
2019-03-06T15:29:59.593Z,98467.84
2019-03-06T15:32:31.263Z,98477.80
2019-03-06T15:35:02.604Z,98466.64
2019-03-06T15:37:33.930Z,98465.92
2019-03-06T15:40:06.498Z,98460.64
2019-03-06T15:42:37.758Z,98448.39
2019-03-06T15:45:09.340Z,98454.05
2019-03-06T15:47:40.644Z,98464.73
2019-03-06T15:50:13.405Z,98441.34
2019-03-06T15:52:44.881Z,98443.64
2019-03-06T15:55:18.141Z,98453.93
2019-03-06T15:57:49.661Z,98441.47
2019-03-06T16:00:34.523Z,98440.86
2019-03-06T16:03:07.616Z,98432.37
2019-03-06T16:05:39.423Z,98432.13
2019-03-06T16:08:11.342Z,98424.44
2019-03-06T16:10:43.484Z,98412.59
2019-03-06T16:13:15.330Z,98423.00
2019-03-06T16:15:46.748Z,98414.27
2019-03-06T16:18:17.995Z,98401.08
2019-03-06T16:20:49.600Z,98402.13
2019-03-06T16:23:20.900Z,98398.42
2019-03-06T16:25:52.226Z,98391.70
2019-03-06T16:28:23.521Z,98395.89
2019-03-06T16:30:54.840Z,98383.67
2019-03-06T16:33:26.205Z,98391.34
2019-03-06T16:35:57.701Z,98394.11
2019-03-06T16:38:29.043Z,98407.67
2019-03-06T16:41:00.356Z,98396.03
2019-03-06T16:43:31.660Z,98393.64
2019-03-06T16:46:03.002Z,98391.58
2019-03-06T16:48:34.463Z,98386.92
2019-03-06T16:51:06.900Z,98384.40
2019-03-06T16:53:38.257Z,98381.48
2019-03-06T16:56:09.674Z,98387.62
2019-03-06T16:58:41.025Z,98379.09
2019-03-06T17:01:12.390Z,98378.50
2019-03-06T17:03:43.718Z,98379.94
2019-03-06T17:06:15.245Z,98362.67
2019-03-06T17:08:46.527Z,98366.62
2019-03-06T17:11:17.865Z,98365.08
2019-03-06T17:13:49.212Z,98360.88
2019-03-06T17:16:20.518Z,98367.12
2019-03-06T17:18:51.849Z,98363.17
2019-03-06T17:21:23.301Z,98368.19
2019-03-06T17:23:54.609Z,98374.67
2019-03-06T17:26:25.922Z,98372.16
2019-03-06T17:28:58.569Z,98377.17
2019-03-06T17:31:29.916Z,98377.67
2019-03-06T17:34:01.227Z,98378.77
2019-03-06T17:36:32.582Z,98378.50
2019-03-06T17:39:05.065Z,98360.91
2019-03-06T17:41:36.377Z,98376.49
2019-03-06T17:44:07.659Z,98379.84
2019-03-06T17:46:38.967Z,98386.92
2019-03-06T17:49:10.531Z,98380.44
2019-03-06T17:51:41.844Z,98376.96
2019-03-06T17:54:13.204Z,98373.84
2019-03-06T17:56:46.722Z,98363.42
2019-03-06T17:59:17.669Z,98369.16
2019-03-06T18:01:49.295Z,98364.14
2019-03-06T18:04:21.927Z,98371.70
2019-03-06T18:06:53.335Z,98368.31
2019-03-06T18:09:24.687Z,98366.44
2019-03-06T18:11:56.008Z,98359.34
2019-03-06T18:14:27.326Z,98354.42
2019-03-06T18:16:58.764Z,98361.02
2019-03-06T18:19:30.086Z,98365.56
2019-03-06T18:22:01.393Z,98366.98
2019-03-06T18:24:32.807Z,98358.88
2019-03-06T18:27:04.117Z,98344.74
2019-03-06T18:29:35.487Z,98349.88
2019-03-06T18:32:06.756Z,98353.81
2019-03-06T18:34:38.065Z,98347.95
2019-03-06T18:37:09.432Z,98345.92
2019-03-06T18:39:40.964Z,98338.86
2019-03-06T18:42:12.318Z,98328.56
2019-03-06T18:44:45.391Z,98336.55
2019-03-06T18:47:16.824Z,98319.45
2019-03-06T18:49:48.141Z,98328.19
2019-03-06T18:52:21.791Z,98317.66
2019-03-06T18:54:53.118Z,98312.02
2019-03-06T18:57:24.437Z,98305.19
2019-03-06T18:59:55.728Z,98312.49
2019-03-06T19:02:27.153Z,98312.84
2019-03-06T19:04:58.494Z,98313.08
2019-03-06T19:07:29.788Z,98304.34
2019-03-06T19:10:01.087Z,98298.38
2019-03-06T19:12:32.427Z,98300.54
2019-03-06T19:15:04.007Z,98308.53
2019-03-06T19:17:35.322Z,98287.72
2019-03-06T19:20:07.332Z,98296.46
2019-03-06T19:22:38.843Z,98297.17
2019-03-06T19:25:11.962Z,98279.70
2019-03-06T19:27:43.305Z,98282.56
2019-03-06T19:30:22.064Z,98264.86
2019-03-06T19:32:53.571Z,98256.48
2019-03-06T19:35:27.923Z,98266.17
2019-03-06T19:37:59.238Z,98252.78
2019-03-06T19:40:30.741Z,98259.70
2019-03-06T19:43:02.039Z,98256.73
2019-03-06T19:45:33.363Z,98255.63
2019-03-06T19:48:04.837Z,98268.70
2019-03-06T19:50:36.150Z,98273.13
2019-03-06T19:53:09.238Z,98262.36
2019-03-06T19:55:40.589Z,98255.05
2019-03-06T19:58:14.301Z,98258.52
2019-03-06T20:00:46.027Z,98252.52
2019-03-06T20:03:17.974Z,98261.86
2019-03-06T20:05:49.464Z,98239.73
2019-03-06T20:08:20.979Z,98251.58
2019-03-06T20:10:52.276Z,98253.23
2019-03-06T20:13:23.707Z,98254.44
2019-03-06T20:15:55.182Z,98244.88
2019-03-06T20:18:26.783Z,98263.66
2019-03-06T20:20:58.156Z,98247.38
2019-03-06T20:23:29.537Z,98230.96
2019-03-06T20:26:01.016Z,98248.34
2019-03-06T20:28:32.329Z,98250.02
2019-03-06T20:31:03.914Z,98241.16
2019-03-06T20:33:35.318Z,98245.45
2019-03-06T20:36:06.667Z,98252.28
2019-03-06T20:38:37.958Z,98247.74
2019-03-06T20:41:09.321Z,98240.91
2019-03-06T20:43:43.871Z,98247.86
2019-03-06T20:46:15.249Z,98236.02
2019-03-06T20:48:46.594Z,98238.41
2019-03-06T20:51:17.876Z,98236.36
2019-03-06T20:53:49.190Z,98229.42
2019-03-06T20:56:20.491Z,98228.93
2019-03-06T20:58:51.793Z,98232.16
2019-03-06T21:01:23.317Z,98216.61
2019-03-06T21:03:54.630Z,98223.42
2019-03-06T21:06:33.209Z,98228.12
2019-03-06T21:08:58.917Z,98223.92
2019-03-06T21:11:30.250Z,98213.86
2019-03-06T21:14:01.555Z,98233.37
2019-03-06T21:16:33.014Z,98219.48
2019-03-06T21:19:04.541Z,98219.36
2019-03-06T21:21:36.143Z,98229.19
2019-03-06T21:24:07.602Z,98232.87
2019-03-06T21:26:38.995Z,98213.98
2019-03-06T21:29:10.326Z,98203.44
2019-03-06T21:31:41.616Z,98204.88
2019-03-06T21:34:12.886Z,98193.26
2019-03-06T21:36:45.122Z,98197.09
2019-03-06T21:39:24.259Z,98186.78
2019-03-06T21:41:55.597Z,98183.68
2019-03-06T21:44:26.910Z,98194.09
2019-03-06T21:46:58.210Z,98173.03
2019-03-06T21:49:29.579Z,98177.34
2019-03-06T21:52:00.959Z,98177.11
2019-03-06T21:54:32.298Z,98174.67
2019-03-06T21:57:03.642Z,98179.37
2019-03-06T21:59:38.145Z,98179.84
2019-03-06T22:02:09.466Z,98175.42
2019-03-06T22:04:42.483Z,98176.84
2019-03-06T22:07:13.774Z,98162.96
2019-03-06T22:09:45.063Z,98171.47
2019-03-06T22:12:16.359Z,98170.02
2019-03-06T22:14:47.667Z,98169.41
2019-03-06T22:17:19.252Z,98175.29
2019-03-06T22:19:50.564Z,98173.36
2019-03-06T22:22:22.013Z,98169.20
2019-03-06T22:24:53.344Z,98158.42
2019-03-06T22:27:24.630Z,98160.81
2019-03-06T22:29:56.086Z,98157.70
2019-03-06T22:32:27.415Z,98164.16
2019-03-06T22:34:58.696Z,98157.70
2019-03-06T22:37:30.008Z,98151.73
2019-03-06T22:40:01.281Z,98155.67
2019-03-06T22:42:32.564Z,98143.97
2019-03-06T22:45:03.833Z,98149.83
2019-03-06T22:47:35.111Z,98129.71
2019-03-06T22:50:07.817Z,98127.31
2019-03-06T22:52:39.084Z,98118.33
2019-03-06T22:55:13.045Z,98114.38
2019-03-06T22:57:44.340Z,98130.30
2019-03-06T23:00:45.299Z,98111.98
2019-03-06T23:03:17.373Z,98112.56
2019-03-06T23:05:48.624Z,98100.84
2019-03-06T23:08:19.919Z,98092.57
2019-03-06T23:10:51.617Z,98090.07
2019-03-06T23:13:22.895Z,98090.30
2019-03-06T23:15:54.179Z,98085.55
2019-03-06T23:18:25.482Z,98074.14
2019-03-06T23:20:56.872Z,98065.52
2019-03-06T23:23:28.115Z,98064.58
2019-03-06T23:25:59.572Z,98056.68
2019-03-06T23:28:30.851Z,98057.48
2019-03-06T23:31:02.139Z,98052.59
2019-03-06T23:33:33.454Z,98046.01
2019-03-06T23:36:04.701Z,98035.67
2019-03-06T23:38:36.263Z,98037.13
2019-03-06T23:41:07.541Z,98036.65
2019-03-06T23:43:38.782Z,98021.69
2019-03-06T23:46:11.680Z,98024.42
2019-03-06T23:48:43.097Z,98014.83
2019-03-06T23:51:28.253Z,98007.06
2019-03-06T23:53:59.572Z,98001.66
2019-03-06T23:56:30.869Z,97997.47
2019-03-06T23:59:02.263Z,98002.37
